CheckWX is a tool to help pilots better visualize weather data.  It is not intended as a substitute for an official pre-flight weather briefing.

03:44:12 UTC

EGGD METAR
Bristol International Airport
Bristol, United Kingdom
Current

24 mins ago

EGGD 020320Z AUTO 27007KT 9999 OVC033 05/03 Q1019
Observed
Apr-2 @ 03:20 UTC
Wind
  • 270° at 7 KTS
Visibility
10,000+ meters
Flight Rules
VFR
Cloud Levels
  • Overcast at 3,300' AGL
Temperature
C / 41°F
Dewpoint
C / 37°F
Humidity
87%
Altimeter
30.09" Hg
Pressure
1018.92 hPa
Previous

54 mins ago

EGGD 020250Z AUTO 28008KT 9999 OVC031 06/02 Q1019
Observed
Apr-2 @ 02:50 UTC
Wind
  • 280° at 8 KTS
Visibility
10,000+ meters
Flight Rules
VFR
Cloud Levels
  • Overcast at 3,100' AGL
Temperature
C / 43°F
Dewpoint
C / 36°F
Humidity
76%
Altimeter
30.09" Hg
Pressure
1018.92 hPa
Previous

1 hour ago

EGGD 020220Z AUTO 27008KT 9999 OVC031 05/02 Q1019
Observed
Apr-2 @ 02:20 UTC
Wind
  • 270° at 8 KTS
Visibility
10,000+ meters
Flight Rules
VFR
Cloud Levels
  • Overcast at 3,100' AGL
Temperature
C / 41°F
Dewpoint
C / 36°F
Humidity
81%
Altimeter
30.09" Hg
Pressure
1018.92 hPa